Time;durP1;ratioP1;P1;durP2;ratioP2;P2;SDS_P1;SDS_P2;PMS_P1;PMS_P2;Temp;Humidity;BMP_temperature;BMP_pressure;BME280_temperature;BME280_humidity;BME280_pressure;Samples;Min_cycle;Max_cycle;Signal;HPM_P1;HPM_P2
2021/10/12 00:00:56;;;;;;;2.83;0.90;;;11.60;99.90;;;;;;5033208;28;20212;-89
2021/10/12 00:03:28;;;;;;;2.70;1.10;;;11.70;99.90;;;;;;5043112;28;20215;-90
2021/10/12 00:06:00;;;;;;;1.27;0.73;;;11.70;99.90;;;;;;5037296;28;20646;-86
2021/10/12 00:08:33;;;;;;;2.43;1.10;;;11.60;99.90;;;;;;5038270;28;20271;-86
2021/10/12 00:11:04;;;;;;;2.50;1.00;;;11.40;99.90;;;;;;5037596;28;20224;-86
2021/10/12 00:13:37;;;;;;;3.17;0.80;;;11.30;99.90;;;;;;5037871;28;20697;-87
2021/10/12 00:16:10;;;;;;;2.33;0.93;;;11.30;99.90;;;;;;5036605;28;20251;-86
2021/10/12 00:18:42;;;;;;;1.80;0.70;;;11.30;99.90;;;;;;5050052;28;20301;-86
2021/10/12 00:21:14;;;;;;;2.43;0.70;;;11.30;99.90;;;;;;5053672;28;20209;-86
2021/10/12 00:23:46;;;;;;;3.03;0.80;;;11.30;99.90;;;;;;5053660;28;20601;-86
2021/10/12 00:26:18;;;;;;;2.03;0.70;;;11.30;99.90;;;;;;5031883;28;20205;-85
2021/10/12 00:31:21;;;;;;;3.07;0.90;;;11.20;99.90;;;;;;5075098;28;20238;-86
2021/10/12 00:33:54;;;;;;;2.10;0.90;;;11.10;99.90;;;;;;5074368;28;20232;-87
2021/10/12 00:36:31;;;;;;;5.13;1.00;;;11.10;99.90;;;;;;5071580;28;20204;-87
2021/10/12 00:39:03;;;;;;;7.20;1.13;;;10.90;99.90;;;;;;5075261;28;20303;-87
2021/10/12 00:41:44;;;;;;;3.17;0.90;;;10.90;99.90;;;;;;5073341;28;20212;-86
2021/10/12 00:44:18;;;;;;;2.00;1.13;;;10.80;99.90;;;;;;5070835;28;20205;-86
2021/10/12 00:46:55;;;;;;;2.30;1.07;;;10.80;99.90;;;;;;5068146;28;20695;-86
2021/10/12 00:49:30;;;;;;;4.83;1.10;;;10.80;99.90;;;;;;5071981;28;20239;-86
2021/10/12 00:52:02;;;;;;;1.97;0.73;;;10.80;99.90;;;;;;5058136;28;20216;-85
2021/10/12 00:54:34;;;;;;;4.10;1.20;;;10.80;99.90;;;;;;5063164;28;20259;-86
2021/10/12 00:59:53;;;;;;;1.77;0.83;;;10.70;99.90;;;;;;5346218;23;20291;-87
2021/10/12 01:02:33;;;;;;;2.63;0.97;;;10.70;99.90;;;;;;5051459;28;20222;-87
2021/10/12 01:05:05;;;;;;;2.77;0.93;;;10.70;99.90;;;;;;5047848;28;20209;-91
2021/10/12 01:07:38;;;;;;;1.90;1.30;;;10.70;99.90;;;;;;5048617;28;20212;-94
2021/10/12 01:10:11;;;;;;;4.47;1.27;;;10.60;99.90;;;;;;5050183;28;20221;-92
2021/10/12 01:12:42;;;;;;;4.67;1.33;;;10.60;99.90;;;;;;5014951;28;20228;-92
2021/10/12 01:15:15;;;;;;;3.13;1.30;;;10.50;99.90;;;;;;5044941;28;20277;-91
2021/10/12 01:17:51;;;;;;;4.30;1.50;;;10.50;99.90;;;;;;5031175;28;20205;-92
2021/10/12 01:20:23;;;;;;;2.17;1.30;;;10.40;99.90;;;;;;5032046;28;20205;-92
2021/10/12 01:22:57;;;;;;;2.00;1.60;;;10.30;99.90;;;;;;5047620;28;20189;-92
2021/10/12 01:28:19;;;;;;;5.47;1.40;;;10.20;99.90;;;;;;5053571;23;20241;-95
2021/10/12 01:30:51;;;;;;;1.83;1.10;;;10.10;99.90;;;;;;5041156;28;20197;-95
2021/10/12 01:33:23;;;;;;;3.67;1.37;;;10.00;99.90;;;;;;5341581;23;20240;-94
2021/10/12 01:35:56;;;;;;;3.20;1.10;;;9.90;99.90;;;;;;5053113;28;20207;-93
2021/10/12 01:41:14;;;;;;;4.43;1.40;;;9.60;99.90;;;;;;5050704;28;20263;-93
2021/10/12 01:43:47;;;;;;;4.07;2.00;;;9.70;99.90;;;;;;5041356;28;20201;-94
2021/10/12 01:46:18;;;;;;;3.30;1.37;;;9.60;99.90;;;;;;5043775;28;20684;-93
2021/10/12 01:48:50;;;;;;;2.23;1.20;;;9.50;99.90;;;;;;5035177;28;20719;-93
2021/10/12 01:51:24;;;;;;;3.13;1.37;;;9.40;99.90;;;;;;5019246;28;20206;-93
2021/10/12 01:53:55;;;;;;;3.97;1.40;;;9.40;99.90;;;;;;5020820;28;20225;-94
2021/10/12 01:56:28;;;;;;;3.87;1.47;;;9.30;99.90;;;;;;5038425;28;20208;-94
2021/10/12 01:59:00;;;;;;;3.63;1.53;;;9.20;99.90;;;;;;5037819;28;20209;-93
2021/10/12 02:01:33;;;;;;;2.27;1.27;;;9.10;99.90;;;;;;5037014;28;20217;-96
2021/10/12 02:04:10;;;;;;;3.67;1.70;;;8.90;99.90;;;;;;4838108;28;10000415;-94
2021/10/12 02:06:44;;;;;;;3.27;1.63;;;8.70;99.90;;;;;;5048702;28;20397;-95
2021/10/12 02:09:17;;;;;;;4.63;2.37;;;8.60;99.90;;;;;;5036712;28;20209;-94
2021/10/12 02:11:51;;;;;;;9.47;3.20;;;8.50;99.90;;;;;;5047892;28;20204;-96
2021/10/12 02:14:23;;;;;;;5.47;3.10;;;8.40;99.90;;;;;;5049827;28;20252;-96
2021/10/12 02:16:55;;;;;;;10.50;2.97;;;8.40;99.90;;;;;;5044847;28;20215;-96
2021/10/12 02:19:26;;;;;;;6.23;3.30;;;8.30;99.90;;;;;;5048737;28;20209;-94
2021/10/12 02:21:57;;;;;;;4.80;3.13;;;8.20;99.90;;;;;;5047533;28;20208;-95
2021/10/12 02:24:29;;;;;;;4.80;3.17;;;8.20;99.90;;;;;;5051831;28;20213;-95
2021/10/12 02:27:17;;;;;;;5.20;2.83;;;8.10;99.90;;;;;;5102265;23;20282;-95
2021/10/12 02:29:49;;;;;;;4.00;2.20;;;8.10;99.90;;;;;;5048664;28;20200;-96
2021/10/12 02:32:22;;;;;;;6.60;2.80;;;8.10;99.90;;;;;;5049463;28;20204;-96
2021/10/12 02:34:54;;;;;;;3.70;2.50;;;8.00;99.90;;;;;;5047985;28;20232;-94
2021/10/12 02:37:26;;;;;;;4.33;2.33;;;7.90;99.90;;;;;;5049238;28;20255;-94
2021/10/12 02:40:00;;;;;;;4.80;2.83;;;7.80;99.90;;;;;;5049945;28;20208;-95
2021/10/12 02:42:34;;;;;;;3.20;2.13;;;7.80;99.90;;;;;;5047869;28;20220;-95
2021/10/12 02:45:08;;;;;;;3.83;2.40;;;7.70;99.90;;;;;;5027828;28;21071;-94
2021/10/12 02:47:40;;;;;;;4.83;3.43;;;7.60;99.90;;;;;;5033147;28;20207;-94
2021/10/12 02:50:13;;;;;;;5.03;2.20;;;7.60;99.90;;;;;;5036826;28;20198;-93
2021/10/12 02:52:46;;;;;;;4.03;1.90;;;7.60;99.90;;;;;;5045788;28;20231;-94
2021/10/12 02:55:22;;;;;;;4.73;2.20;;;7.60;99.90;;;;;;5046834;28;20233;-94
2021/10/12 02:57:57;;;;;;;2.90;2.30;;;7.50;99.90;;;;;;5049528;28;20216;-93
2021/10/12 03:00:29;;;;;;;4.40;2.70;;;7.40;99.90;;;;;;5048347;28;20203;-93
2021/10/12 03:03:01;;;;;;;7.37;2.70;;;7.40;99.90;;;;;;5049753;28;20220;-93
2021/10/12 03:05:35;;;;;;;5.17;3.10;;;7.30;99.90;;;;;;5046695;28;20213;-93
2021/10/12 03:08:10;;;;;;;5.93;3.57;;;7.30;99.90;;;;;;5049969;28;20217;-91
2021/10/12 03:10:44;;;;;;;5.77;2.47;;;7.20;99.90;;;;;;5049281;28;20210;-93
2021/10/12 03:13:19;;;;;;;9.00;4.77;;;7.20;99.90;;;;;;5031438;28;20208;-93
2021/10/12 03:15:54;;;;;;;12.97;8.03;;;7.10;99.90;;;;;;5025112;28;20232;-92
2021/10/12 03:18:29;;;;;;;10.90;6.60;;;7.10;99.90;;;;;;5013277;28;20223;-93
2021/10/12 03:21:01;;;;;;;6.03;4.33;;;7.10;99.90;;;;;;5024038;28;20281;-92
2021/10/12 03:23:33;;;;;;;4.50;2.83;;;7.00;99.90;;;;;;5051352;28;20201;-92
2021/10/12 03:28:52;;;;;;;5.27;3.40;;;6.90;99.90;;;;;;5014058;28;20221;-93
2021/10/12 03:31:23;;;;;;;14.17;8.50;;;6.90;99.90;;;;;;5015463;28;20214;-93
2021/10/12 03:33:55;;;;;;;9.70;6.03;;;6.90;99.90;;;;;;5014713;28;20206;-93
2021/10/12 03:41:44;;;;;;;9.27;4.50;;;6.90;99.90;;;;;;5081057;23;20243;-92
2021/10/12 03:52:27;;;;;;;6.17;3.60;;;6.70;99.90;;;;;;5056519;28;20222;-92
2021/10/12 03:54:59;;;;;;;5.30;3.20;;;6.60;99.90;;;;;;5041406;28;20240;-93
2021/10/12 03:57:32;;;;;;;7.03;2.80;;;6.60;99.90;;;;;;5056954;28;20210;-91
2021/10/12 04:05:22;;;;;;;6.93;3.80;;;6.50;99.90;;;;;;5216343;23;20235;-93
2021/10/12 04:10:36;;;;;;;9.70;5.30;;;6.40;99.90;;;;;;5159333;23;20224;-93
2021/10/12 04:23:49;;;;;;;6.97;3.90;;;6.30;99.90;;;;;;5048385;28;20222;-92
2021/10/12 04:26:25;;;;;;;8.13;4.00;;;6.30;99.90;;;;;;5033447;28;20209;-93
2021/10/12 04:28:56;;;;;;;6.33;3.60;;;6.30;99.90;;;;;;5052634;28;20228;-93
2021/10/12 04:31:27;;;;;;;5.27;4.27;;;6.20;99.90;;;;;;5045681;28;20209;-94
2021/10/12 04:34:04;;;;;;;7.90;4.07;;;6.20;99.90;;;;;;5026697;28;20220;-93
2021/10/12 04:36:36;;;;;;;5.93;3.83;;;6.10;99.90;;;;;;5040393;28;20770;-93
2021/10/12 04:39:08;;;;;;;5.03;3.70;;;6.20;99.90;;;;;;5041245;28;20229;-93
2021/10/12 04:41:41;;;;;;;7.10;3.73;;;6.10;99.90;;;;;;5040314;28;20241;-93
2021/10/12 04:44:15;;;;;;;3.80;2.57;;;6.10;99.90;;;;;;5040555;28;20262;-93
2021/10/12 04:46:46;;;;;;;4.20;3.30;;;6.10;99.90;;;;;;5041669;28;20239;-93
2021/10/12 04:49:17;;;;;;;5.10;2.90;;;6.10;99.90;;;;;;5050133;28;20341;-93
2021/10/12 04:51:49;;;;;;;7.23;2.90;;;6.10;99.90;;;;;;5041749;28;20666;-94
2021/10/12 04:54:21;;;;;;;6.80;2.93;;;6.10;99.90;;;;;;5029305;28;20214;-94
2021/10/12 04:56:58;;;;;;;5.70;2.77;;;6.00;99.90;;;;;;5043534;28;20213;-94
2021/10/12 04:59:30;;;;;;;4.37;2.47;;;6.00;99.90;;;;;;5043741;28;20249;-92
2021/10/12 05:02:03;;;;;;;6.03;2.80;;;6.00;99.90;;;;;;5054710;28;20209;-92
2021/10/12 05:04:52;;;;;;;5.70;2.50;;;6.00;99.90;;;;;;5062041;27;3116709;-91
2021/10/12 05:07:28;;;;;;;4.50;2.63;;;6.00;99.90;;;;;;5155798;27;20181;-92
2021/10/12 05:12:41;;;;;;;3.93;2.37;;;6.00;99.90;;;;;;5203587;23;20295;-91
2021/10/12 05:15:19;;;;;;;5.00;2.50;;;6.00;99.90;;;;;;5053357;28;20189;-91
2021/10/12 05:17:51;;;;;;;6.87;2.80;;;5.90;99.90;;;;;;5053213;28;20189;-91
2021/10/12 05:20:27;;;;;;;10.50;2.53;;;5.90;99.90;;;;;;5054021;28;20200;-91
2021/10/12 05:22:59;;;;;;;5.67;2.40;;;5.90;99.90;;;;;;5049489;28;20570;-91
2021/10/12 05:25:30;;;;;;;4.90;2.40;;;5.90;99.90;;;;;;5045811;28;20205;-91
2021/10/12 05:28:02;;;;;;;5.30;2.80;;;5.90;99.90;;;;;;5044897;28;20274;-92
2021/10/12 05:30:39;;;;;;;4.53;2.60;;;5.80;99.90;;;;;;5040138;28;20205;-93
2021/10/12 05:33:13;;;;;;;6.03;2.77;;;5.80;99.90;;;;;;5040281;28;20240;-93
2021/10/12 05:35:46;;;;;;;5.10;3.27;;;5.80;99.90;;;;;;5038802;28;20197;-92
2021/10/12 05:38:19;;;;;;;6.97;3.60;;;5.80;99.90;;;;;;5039461;28;20201;-92
2021/10/12 05:40:51;;;;;;;6.67;4.03;;;5.80;99.90;;;;;;5039469;28;20201;-92
2021/10/12 05:43:22;;;;;;;10.97;5.23;;;5.80;99.90;;;;;;5037903;28;20201;-92
2021/10/12 05:45:54;;;;;;;7.43;4.00;;;5.80;99.90;;;;;;5037380;28;20287;-93
2021/10/12 05:48:25;;;;;;;8.57;4.30;;;5.80;99.90;;;;;;5041090;28;20344;-92
2021/10/12 05:50:59;;;;;;;8.47;4.27;;;5.70;99.90;;;;;;5047410;28;20209;-93
2021/10/12 05:53:32;;;;;;;8.90;4.70;;;5.70;99.90;;;;;;5052784;28;20225;-92
2021/10/12 05:56:07;;;;;;;8.23;4.73;;;5.70;99.90;;;;;;5051595;28;20244;-92
2021/10/12 05:58:43;;;;;;;7.40;4.17;;;5.60;99.90;;;;;;5048485;28;20295;-91
2021/10/12 06:01:17;;;;;;;10.40;4.37;;;5.60;99.90;;;;;;5039767;28;20209;-91
2021/10/12 06:03:49;;;;;;;7.40;3.97;;;5.60;99.90;;;;;;5022683;28;20209;-92
2021/10/12 06:06:22;;;;;;;5.77;3.37;;;5.50;99.90;;;;;;5038002;28;20209;-93
2021/10/12 06:08:53;;;;;;;6.17;3.00;;;5.50;99.90;;;;;;5038748;28;20209;-91
2021/10/12 06:11:39;;;;;;;4.23;3.10;;;5.50;99.90;;;;;;5040767;28;20224;-91
2021/10/12 06:14:10;;;;;;;5.53;3.13;;;5.40;99.90;;;;;;5043858;28;20234;-92
2021/10/12 06:16:42;;;;;;;5.30;3.60;;;5.40;99.90;;;;;;5027555;28;20210;-91
2021/10/12 06:19:15;;;;;;;7.13;4.27;;;5.40;99.90;;;;;;5012060;28;20234;-92
2021/10/12 06:21:49;;;;;;;5.80;3.67;;;5.40;99.90;;;;;;5003877;28;20206;-91
2021/10/12 06:24:21;;;;;;;6.77;3.80;;;5.40;99.90;;;;;;5004415;28;20207;-92
2021/10/12 06:26:53;;;;;;;6.17;3.33;;;5.40;99.90;;;;;;5003076;28;20627;-93
2021/10/12 06:29:24;;;;;;;4.33;3.03;;;5.30;99.90;;;;;;5003268;28;20202;-92
2021/10/12 06:31:56;;;;;;;6.80;3.33;;;5.40;99.90;;;;;;5038037;22;20249;-92
2021/10/12 06:34:27;;;;;;;4.20;2.90;;;5.40;99.90;;;;;;5005430;28;20261;-92
2021/10/12 06:37:02;;;;;;;6.70;2.83;;;5.40;99.90;;;;;;5004440;28;20300;-92
2021/10/12 06:39:35;;;;;;;4.90;2.73;;;5.30;99.90;;;;;;5004914;28;20216;-92
2021/10/12 06:42:06;;;;;;;2.93;2.50;;;5.30;99.90;;;;;;5021645;28;20205;-93
2021/10/12 06:44:37;;;;;;;4.53;2.97;;;5.30;99.90;;;;;;5021407;28;20206;-92
2021/10/12 06:47:10;;;;;;;6.57;2.70;;;5.20;99.90;;;;;;5021299;28;20286;-92
2021/10/12 06:49:42;;;;;;;5.70;2.50;;;5.20;99.90;;;;;;5009510;28;20570;-92
2021/10/12 06:52:16;;;;;;;3.47;2.80;;;5.10;99.90;;;;;;5004429;28;20211;-91
2021/10/12 06:54:49;;;;;;;5.53;3.00;;;5.20;99.90;;;;;;5002422;28;20238;-94
2021/10/12 06:57:20;;;;;;;5.47;3.37;;;5.10;99.90;;;;;;5000719;28;20265;-92
2021/10/12 06:59:56;;;;;;;5.27;3.37;;;5.10;99.90;;;;;;5015769;28;20246;-92
2021/10/12 07:02:30;;;;;;;4.97;3.37;;;5.10;99.90;;;;;;5020583;28;20233;-92
2021/10/12 07:05:15;;;;;;;4.63;3.27;;;5.10;99.90;;;;;;5021596;28;20282;-92
2021/10/12 07:07:49;;;;;;;7.90;4.23;;;5.00;99.90;;;;;;5031834;28;20214;-92
2021/10/12 07:10:22;;;;;;;5.20;3.70;;;4.90;99.90;;;;;;5026163;28;20248;-92
2021/10/12 07:12:56;;;;;;;5.23;3.60;;;4.90;99.90;;;;;;5022463;28;20206;-92
2021/10/12 07:15:27;;;;;;;5.50;4.07;;;4.80;99.90;;;;;;5019694;28;20320;-92
2021/10/12 07:17:59;;;;;;;6.80;4.23;;;4.80;99.90;;;;;;5005342;28;20248;-91
2021/10/12 07:20:30;;;;;;;5.27;3.97;;;4.80;99.90;;;;;;5021959;28;20213;-92
2021/10/12 07:23:03;;;;;;;7.63;4.00;;;4.80;99.90;;;;;;5022430;28;20210;-92
2021/10/12 07:25:38;;;;;;;4.73;3.80;;;4.80;99.90;;;;;;5127319;23;20243;-92
2021/10/12 07:28:13;;;;;;;5.23;3.87;;;4.70;99.90;;;;;;5009073;28;20209;-92
2021/10/12 07:30:47;;;;;;;7.13;4.03;;;4.70;99.90;;;;;;5029089;28;20216;-93
2021/10/12 07:33:20;;;;;;;5.43;3.80;;;4.70;99.90;;;;;;5030057;28;20209;-93
2021/10/12 07:35:58;;;;;;;4.67;3.60;;;4.60;99.90;;;;;;5020649;28;20244;-93
2021/10/12 07:38:34;;;;;;;3.60;2.93;;;4.60;99.90;;;;;;5020848;28;20206;-93
2021/10/12 07:41:05;;;;;;;10.70;3.60;;;4.60;99.90;;;;;;5021849;28;20221;-92
2021/10/12 07:43:37;;;;;;;6.47;3.60;;;4.50;99.90;;;;;;5020549;28;20240;-92
2021/10/12 07:46:09;;;;;;;6.30;3.00;;;4.50;99.90;;;;;;5018712;28;20206;-92
2021/10/12 07:48:40;;;;;;;3.67;2.90;;;4.50;99.90;;;;;;4988102;28;20202;-90
2021/10/12 07:51:11;;;;;;;7.10;3.13;;;4.50;99.90;;;;;;5018548;28;20252;-93
2021/10/12 07:53:45;;;;;;;4.70;2.80;;;4.50;99.90;;;;;;5017612;28;20217;-92
2021/10/12 07:56:27;;;;;;;3.90;2.67;;;4.50;99.90;;;;;;5017735;28;20229;-92
2021/10/12 07:58:59;;;;;;;5.20;2.80;;;4.40;99.90;;;;;;5006786;28;20198;-91
2021/10/12 08:01:30;;;;;;;8.07;3.20;;;4.50;99.90;;;;;;5009300;28;20482;-91
2021/10/12 08:04:01;;;;;;;5.97;2.60;;;4.50;99.90;;;;;;5017167;28;20204;-91
2021/10/12 08:06:33;;;;;;;4.03;3.40;;;4.60;99.90;;;;;;5014840;28;20365;-92
2021/10/12 08:09:07;;;;;;;5.53;3.13;;;4.40;99.90;;;;;;4998580;28;20614;-92
2021/10/12 08:11:38;;;;;;;6.30;3.43;;;4.30;99.90;;;;;;4993836;28;20589;-91
2021/10/12 08:14:12;;;;;;;5.67;4.00;;;4.30;99.90;;;;;;4988759;28;20227;-91
2021/10/12 08:16:44;;;;;;;5.43;3.90;;;4.30;99.90;;;;;;4977269;28;20218;-92
2021/10/12 08:19:16;;;;;;;5.90;3.50;;;4.20;99.90;;;;;;4979293;28;20293;-92
2021/10/12 08:21:47;;;;;;;4.43;3.47;;;4.20;99.90;;;;;;4983897;28;20262;-92
2021/10/12 08:24:21;;;;;;;6.53;3.50;;;4.20;99.90;;;;;;4998087;28;20233;-92
2021/10/12 08:26:52;;;;;;;6.23;3.70;;;4.10;99.90;;;;;;4997762;28;20730;-92
2021/10/12 08:29:24;;;;;;;5.70;3.40;;;4.10;99.90;;;;;;4998298;28;20210;-93
2021/10/12 08:31:56;;;;;;;4.00;2.67;;;4.10;99.90;;;;;;4979383;28;20546;-93
2021/10/12 08:34:27;;;;;;;4.97;3.20;;;4.10;99.90;;;;;;4979047;28;20620;-93
2021/10/12 08:36:58;;;;;;;4.10;2.77;;;4.10;99.90;;;;;;4978193;28;20207;-93
2021/10/12 08:39:34;;;;;;;4.13;3.10;;;4.10;99.90;;;;;;4980199;28;20735;-92
2021/10/12 08:42:10;;;;;;;4.30;2.70;;;4.10;99.90;;;;;;4978806;28;20210;-92
2021/10/12 08:44:51;;;;;;;5.03;2.93;;;4.10;99.90;;;;;;4979436;28;20211;-92
2021/10/12 08:47:24;;;;;;;5.13;2.90;;;4.10;99.90;;;;;;4978426;28;20241;-92
2021/10/12 08:49:56;;;;;;;5.50;3.10;;;4.20;99.90;;;;;;4977827;28;20234;-93
2021/10/12 08:52:28;;;;;;;4.20;3.07;;;4.20;99.90;;;;;;4978954;28;20211;-92
2021/10/12 08:55:02;;;;;;;9.43;3.00;;;4.30;99.90;;;;;;4976703;28;20243;-92
2021/10/12 08:57:35;;;;;;;4.17;3.20;;;4.40;99.90;;;;;;4979025;28;20231;-92
2021/10/12 09:00:09;;;;;;;7.17;4.00;;;4.50;99.90;;;;;;4962342;28;20719;-92
2021/10/12 09:03:15;;;;;;;11.67;3.40;;;4.60;99.90;;;;;;4978424;28;20211;-92
2021/10/12 09:05:54;;;;;;;5.97;3.20;;;4.60;99.90;;;;;;4977862;28;20206;-91
2021/10/12 09:08:30;;;;;;;6.43;2.87;;;4.70;99.90;;;;;;4977600;28;20215;-92
2021/10/12 09:11:05;;;;;;;3.47;2.63;;;4.70;99.90;;;;;;4978609;28;20234;-91
2021/10/12 09:13:46;;;;;;;3.60;2.90;;;4.80;99.90;;;;;;4978180;28;20258;-91
2021/10/12 09:16:18;;;;;;;4.10;3.37;;;4.90;99.90;;;;;;4977425;28;20257;-92
2021/10/12 09:18:55;;;;;;;7.73;3.43;;;4.90;99.90;;;;;;4977975;28;20253;-95
2021/10/12 09:21:28;;;;;;;4.13;3.07;;;4.90;99.90;;;;;;4977907;28;20211;-92
2021/10/12 09:24:10;;;;;;;4.50;2.97;;;5.00;99.90;;;;;;4961478;28;20210;-92
2021/10/12 09:26:45;;;;;;;4.43;3.03;;;4.90;99.90;;;;;;4977626;28;20229;-92
2021/10/12 09:29:24;;;;;;;4.93;3.60;;;5.00;99.90;;;;;;4979029;28;20702;-93
2021/10/12 09:31:57;;;;;;;4.23;2.77;;;5.10;99.90;;;;;;4980607;28;20215;-91
2021/10/12 09:34:31;;;;;;;4.27;2.57;;;5.20;99.90;;;;;;4981864;28;20211;-91
2021/10/12 09:37:03;;;;;;;4.07;2.63;;;5.20;99.90;;;;;;4980808;28;20238;-90
2021/10/12 09:39:36;;;;;;;4.77;2.50;;;5.20;99.90;;;;;;4996983;28;20195;-91
2021/10/12 09:42:12;;;;;;;2.73;2.50;;;5.20;99.90;;;;;;4997560;28;20213;-92
2021/10/12 09:44:53;;;;;;;3.07;2.53;;;5.30;99.90;;;;;;4997382;28;20203;-91
2021/10/12 09:47:26;;;;;;;3.43;2.17;;;5.30;99.90;;;;;;4997378;28;20270;-91
2021/10/12 09:50:10;;;;;;;5.50;2.43;;;5.20;99.90;;;;;;4997660;28;20234;-92
2021/10/12 09:52:45;;;;;;;2.77;2.13;;;5.20;99.90;;;;;;5000379;28;20241;-91
2021/10/12 09:55:39;;;;;;;4.80;2.27;;;5.30;99.90;;;;;;4986611;28;20333;-93
2021/10/12 09:58:14;;;;;;;3.57;2.27;;;5.20;99.90;;;;;;4985030;28;20211;-92
2021/10/12 10:00:45;;;;;;;2.83;2.27;;;5.10;99.90;;;;;;4982700;28;20210;-92
2021/10/12 10:03:18;;;;;;;2.13;1.93;;;5.00;99.90;;;;;;4981799;28;20816;-92
2021/10/12 10:05:51;;;;;;;3.57;2.30;;;5.00;99.90;;;;;;4981738;28;20731;-93
2021/10/12 10:08:39;;;;;;;3.87;2.43;;;5.00;99.90;;;;;;4986761;28;20263;-92
2021/10/12 10:11:32;;;;;;;2.60;2.17;;;4.90;99.90;;;;;;4998967;28;20225;-90
2021/10/12 10:14:08;;;;;;;3.20;2.30;;;4.90;99.90;;;;;;5004717;28;20201;-91
2021/10/12 10:16:41;;;;;;;2.70;2.20;;;4.80;99.90;;;;;;5006594;28;20230;-91
2021/10/12 10:19:17;;;;;;;4.37;2.50;;;4.70;99.90;;;;;;5004830;28;20210;-91
2021/10/12 10:21:48;;;;;;;2.40;2.20;;;4.70;99.90;;;;;;5003087;28;20210;-91
2021/10/12 10:24:40;;;;;;;2.90;2.40;;;4.60;99.90;;;;;;5010684;28;20268;-93
2021/10/12 10:27:33;;;;;;;2.63;2.23;;;4.60;99.90;;;;;;5020133;28;20643;-92
2021/10/12 10:30:25;;;;;;;3.57;2.57;;;4.60;99.90;;;;;;5048582;23;20273;-92
2021/10/12 10:32:59;;;;;;;5.03;2.73;;;4.60;99.90;;;;;;5019773;28;20237;-92
2021/10/12 10:35:41;;;;;;;4.33;3.30;;;4.60;99.90;;;;;;5019788;28;20271;-93
2021/10/12 10:38:30;;;;;;;8.80;4.63;;;4.70;99.90;;;;;;5020363;28;20288;-91
2021/10/12 10:41:26;;;;;;;8.47;3.90;;;4.80;99.90;;;;;;5019669;28;20563;-91
2021/10/12 10:44:00;;;;;;;18.17;4.80;;;4.80;99.90;;;;;;5015640;28;20209;-91
2021/10/12 10:46:44;;;;;;;12.97;4.80;;;4.80;99.90;;;;;;5018833;28;20236;-92
2021/10/12 10:49:18;;;;;;;32.27;6.43;;;4.80;99.90;;;;;;5019151;28;20197;-91
2021/10/12 10:51:55;;;;;;;77.43;7.47;;;4.80;99.90;;;;;;5020006;28;20201;-92
2021/10/12 10:55:04;;;;;;;84.43;8.07;;;4.80;99.90;;;;;;5015523;28;20238;-91
2021/10/12 10:57:35;;;;;;;50.17;6.00;;;4.80;99.90;;;;;;4939741;29;20256;-91
2021/10/12 11:00:47;;;;;;;25.63;5.80;;;4.80;99.90;;;;;;4992349;28;20206;-91
2021/10/12 11:03:42;;;;;;;26.13;4.80;;;4.80;99.90;;;;;;4999985;28;20257;-91
2021/10/12 11:06:21;;;;;;;9.70;4.77;;;4.70;99.90;;;;;;4999229;28;20269;-91
2021/10/12 11:09:03;;;;;;;5.57;3.80;;;4.70;99.90;;;;;;4999754;28;20237;-92
2021/10/12 11:11:36;;;;;;;6.97;3.80;;;4.60;99.90;;;;;;4998144;28;20245;-92
2021/10/12 11:14:07;;;;;;;5.57;3.13;;;4.60;99.90;;;;;;4982368;28;20238;-92
2021/10/12 11:16:39;;;;;;;7.43;3.03;;;4.50;99.90;;;;;;4984107;28;20238;-92
2021/10/12 11:19:12;;;;;;;6.90;3.10;;;4.50;99.90;;;;;;4982560;28;20214;-92
2021/10/12 11:21:43;;;;;;;11.90;3.10;;;4.50;99.90;;;;;;4999093;28;20218;-92
2021/10/12 11:24:17;;;;;;;4.40;3.13;;;4.40;99.90;;;;;;4999431;28;20237;-92
2021/10/12 11:27:00;;;;;;;7.03;3.27;;;4.40;99.90;;;;;;4982599;28;20278;-92
2021/10/12 11:29:32;;;;;;;3.80;3.00;;;4.40;99.90;;;;;;4999103;28;20245;-90
2021/10/12 11:32:06;;;;;;;31.67;3.83;;;4.30;99.90;;;;;;4982142;28;20206;-93
2021/10/12 11:34:40;;;;;;;9.83;2.37;;;4.30;99.90;;;;;;4981988;28;20221;-92
2021/10/12 11:37:13;;;;;;;18.80;2.80;;;4.30;99.90;;;;;;4997480;28;20564;-92
2021/10/12 11:39:44;;;;;;;28.67;2.63;;;4.30;99.90;;;;;;5001613;28;20252;-91
2021/10/12 11:42:15;;;;;;;34.40;2.80;;;4.30;99.90;;;;;;4998564;28;20576;-91
2021/10/12 11:44:52;;;;;;;11.83;1.80;;;4.30;99.90;;;;;;4982531;28;20206;-91
2021/10/12 11:47:23;;;;;;;21.33;3.53;;;4.20;99.90;;;;;;4999294;28;20206;-92
2021/10/12 11:49:56;;;;;;;19.67;2.57;;;4.10;99.90;;;;;;4982268;28;20282;-93
2021/10/12 11:52:33;;;;;;;45.67;3.53;;;4.20;99.90;;;;;;4999452;28;20303;-91
2021/10/12 11:55:09;;;;;;;63.17;3.53;;;4.10;99.90;;;;;;4998543;28;20257;-91
2021/10/12 11:57:45;;;;;;;95.97;4.67;;;3.90;99.90;;;;;;5014802;28;20236;-91
2021/10/12 12:00:18;;;;;;;73.53;4.33;;;3.80;99.90;;;;;;5010353;28;20237;-91
2021/10/12 12:02:49;;;;;;;112.57;5.00;;;3.90;99.90;;;;;;5007340;28;20234;-92
2021/10/12 12:05:23;;;;;;;102.20;4.97;;;3.90;99.90;;;;;;5006850;28;20260;-92
2021/10/12 12:07:58;;;;;;;92.97;4.33;;;3.90;99.90;;;;;;5001698;28;20218;-91
2021/10/12 12:10:29;;;;;;;36.60;2.67;;;3.90;99.90;;;;;;5000035;28;20268;-93
2021/10/12 12:13:00;;;;;;;45.73;3.23;;;3.90;99.90;;;;;;4997997;28;20210;-92
2021/10/12 12:15:32;;;;;;;35.50;2.83;;;3.90;99.90;;;;;;5004532;28;20237;-92
2021/10/12 12:18:14;;;;;;;32.37;2.60;;;3.80;99.90;;;;;;5015348;28;20226;-93
2021/10/12 12:20:56;;;;;;;27.67;2.77;;;3.80;99.90;;;;;;5005917;28;20253;-92
2021/10/12 12:23:35;;;;;;;34.57;2.60;;;3.70;99.90;;;;;;5005178;28;20206;-92
2021/10/12 12:26:09;;;;;;;42.27;2.70;;;3.80;99.90;;;;;;4999555;28;20658;-92
2021/10/12 12:28:42;;;;;;;22.93;2.17;;;3.80;99.90;;;;;;4979233;28;20215;-91
2021/10/12 12:31:20;;;;;;;15.70;1.97;;;3.70;99.90;;;;;;4978855;28;20223;-92
2021/10/12 12:33:53;;;;;;;11.73;1.97;;;3.70;99.90;;;;;;4978173;28;20285;-91
2021/10/12 12:36:34;;;;;;;3.60;1.70;;;3.60;99.90;;;;;;4977356;28;20222;-92
2021/10/12 12:39:07;;;;;;;1.93;1.63;;;3.60;99.90;;;;;;4991718;28;20202;-92
2021/10/12 12:41:42;;;;;;;2.00;1.60;;;3.60;99.90;;;;;;4998241;28;20205;-92
2021/10/12 12:44:23;;;;;;;2.20;1.80;;;3.50;99.90;;;;;;4997974;28;20209;-93
2021/10/12 12:46:59;;;;;;;2.07;1.87;;;3.50;99.90;;;;;;4996947;28;20209;-93
2021/10/12 12:49:31;;;;;;;2.20;2.00;;;3.40;99.90;;;;;;4998084;28;20209;-93
2021/10/12 12:52:25;;;;;;;1.80;1.70;;;3.40;99.90;;;;;;4997856;28;20684;-93
2021/10/12 12:54:56;;;;;;;1.60;1.37;;;3.30;99.90;;;;;;5001168;28;20230;-92
2021/10/12 12:57:28;;;;;;;1.70;1.60;;;3.30;99.90;;;;;;5017200;28;20628;-92
2021/10/12 13:00:09;;;;;;;2.63;1.60;;;3.30;99.90;;;;;;5017634;28;20223;-91
2021/10/12 13:02:40;;;;;;;2.37;1.60;;;3.30;99.90;;;;;;5017068;28;20240;-92
2021/10/12 13:05:11;;;;;;;2.37;1.70;;;3.30;99.90;;;;;;5016374;28;20206;-91
2021/10/12 13:07:44;;;;;;;3.20;1.60;;;3.30;99.90;;;;;;5011278;28;20209;-92
2021/10/12 13:10:16;;;;;;;1.60;1.50;;;3.30;99.90;;;;;;4981169;28;20214;-91
2021/10/12 13:12:48;;;;;;;2.23;1.80;;;3.30;99.90;;;;;;4997733;28;20218;-92
2021/10/12 13:15:19;;;;;;;1.77;1.67;;;3.30;99.90;;;;;;4996725;28;20218;-93
2021/10/12 13:17:51;;;;;;;3.57;1.90;;;3.30;99.90;;;;;;4996773;28;20654;-91
2021/10/12 13:20:22;;;;;;;2.00;1.80;;;3.20;99.90;;;;;;4997847;28;20261;-93
2021/10/12 13:22:56;;;;;;;1.80;1.70;;;3.20;99.90;;;;;;4980682;28;20202;-93
2021/10/12 13:25:27;;;;;;;2.30;2.10;;;3.20;99.90;;;;;;5017239;28;20218;-93
2021/10/12 13:27:59;;;;;;;3.37;1.87;;;3.20;99.90;;;;;;5004351;28;20312;-92
2021/10/12 13:30:31;;;;;;;2.10;1.70;;;3.20;99.90;;;;;;5020138;28;20259;-92
2021/10/12 13:33:03;;;;;;;2.70;1.60;;;3.20;99.90;;;;;;5004215;28;20210;-92
2021/10/12 13:35:34;;;;;;;2.00;1.53;;;3.20;99.90;;;;;;5020503;28;20272;-92
2021/10/12 13:38:11;;;;;;;1.60;1.50;;;3.20;99.90;;;;;;5021111;28;20229;-92
2021/10/12 13:40:43;;;;;;;1.67;1.57;;;3.20;99.90;;;;;;5020891;28;20220;-92
2021/10/12 13:43:16;;;;;;;1.80;1.70;;;3.20;99.90;;;;;;5027145;28;20237;-92
2021/10/12 13:45:48;;;;;;;2.30;1.73;;;3.20;99.90;;;;;;5022130;28;20243;-92
2021/10/12 13:48:19;;;;;;;1.70;1.57;;;3.20;99.90;;;;;;5021038;28;20212;-93
2021/10/12 13:50:52;;;;;;;3.30;1.80;;;3.20;99.90;;;;;;5021374;28;20209;-92
2021/10/12 13:53:27;;;;;;;2.93;2.03;;;3.10;99.90;;;;;;5018917;28;20230;-92
2021/10/12 13:55:58;;;;;;;1.73;1.63;;;3.10;99.90;;;;;;5004897;28;20733;-92
2021/10/12 13:58:30;;;;;;;2.73;1.97;;;3.10;99.90;;;;;;5001039;28;20308;-92
2021/10/12 14:01:02;;;;;;;2.07;1.83;;;3.00;99.90;;;;;;5001018;28;20336;-92
2021/10/12 14:03:40;;;;;;;2.37;1.70;;;3.10;99.90;;;;;;5000184;28;20232;-93
2021/10/12 14:06:12;;;;;;;3.33;1.57;;;3.00;99.90;;;;;;4999715;28;20210;-92
2021/10/12 14:08:46;;;;;;;2.20;1.90;;;3.00;99.90;;;;;;5008054;28;20221;-92
2021/10/12 14:11:17;;;;;;;2.47;2.00;;;3.00;99.90;;;;;;4999802;28;20734;-92
2021/10/12 14:13:49;;;;;;;1.90;1.70;;;3.00;99.90;;;;;;5000952;28;20202;-91
2021/10/12 14:16:22;;;;;;;1.90;1.80;;;2.90;99.90;;;;;;4999102;28;20290;-92
2021/10/12 14:18:54;;;;;;;2.03;1.87;;;2.90;99.90;;;;;;4989251;28;20243;-93
2021/10/12 14:21:25;;;;;;;3.20;1.57;;;3.00;99.90;;;;;;5004311;28;20213;-94